Bells, Tennessee
Current Conditions -  °F | °C
As of 2:53 PM on Friday 24 Oct 2014 (Local Time) from KMKL Reporting Station
Clear Clear  
Wind Chill: 72°   Ceiling: Unl
Heat Index: 72°   Visibility: 10mi
Dew Point: 52°   Wind: 7mph
Humidity: 49%   Direction: 330°NNW
Pressure: 30.08"   Gusts: NA
Location:  35.71°N, 89.09°W
Report Text: KMKL 241953Z 33006KT 10SM CLR 22/11 A3008 RMK AO2 SLP184 T02220111
Loading
Personal Weather Stations






























Interactive Weather Map
Tropical Storm Tracking
New forecast layout! Learn more

10-Day Weather Forecast

Advertisements
Track Severe Weather on mobile